sensor_id;sensor_type;location;lat;lon;timestamp;P1;durP1;ratioP1;P2;durP2;ratioP2
76699;SDS011;70081;44.524;0.194;2023-05-16T00:02:51;2.30;;;1.40;;
76699;SDS011;70081;44.524;0.194;2023-05-16T00:08:22;2.40;;;1.57;;
76699;SDS011;70081;44.524;0.194;2023-05-16T00:13:55;2.83;;;1.90;;
76699;SDS011;70081;44.524;0.194;2023-05-16T00:19:29;2.30;;;1.60;;
76699;SDS011;70081;44.524;0.194;2023-05-16T00:25:00;2.77;;;1.67;;
76699;SDS011;70081;44.524;0.194;2023-05-16T00:30:33;2.90;;;1.60;;
76699;SDS011;70081;44.524;0.194;2023-05-16T00:36:05;2.63;;;1.57;;
76699;SDS011;70081;44.524;0.194;2023-05-16T00:41:37;1.63;;;1.50;;
76699;SDS011;70081;44.524;0.194;2023-05-16T00:47:10;2.43;;;1.50;;
76699;SDS011;70081;44.524;0.194;2023-05-16T00:52:43;5.87;;;1.90;;
76699;SDS011;70081;44.524;0.194;2023-05-16T00:58:17;5.90;;;2.30;;
76699;SDS011;70081;44.524;0.194;2023-05-16T01:03:49;4.03;;;1.73;;
76699;SDS011;70081;44.524;0.194;2023-05-16T01:09:23;4.20;;;2.03;;
76699;SDS011;70081;44.524;0.194;2023-05-16T01:14:56;3.17;;;2.23;;
76699;SDS011;70081;44.524;0.194;2023-05-16T01:20:30;4.67;;;2.27;;
76699;SDS011;70081;44.524;0.194;2023-05-16T01:26:09;2.70;;;2.33;;
76699;SDS011;70081;44.524;0.194;2023-05-16T01:31:33;3.73;;;2.40;;
76699;SDS011;70081;44.524;0.194;2023-05-16T01:37:08;4.33;;;2.67;;
76699;SDS011;70081;44.524;0.194;2023-05-16T01:42:41;5.00;;;2.73;;
76699;SDS011;70081;44.524;0.194;2023-05-16T01:48:13;4.00;;;3.13;;
76699;SDS011;70081;44.524;0.194;2023-05-16T01:53:45;3.67;;;2.60;;
76699;SDS011;70081;44.524;0.194;2023-05-16T01:59:19;5.87;;;3.23;;
76699;SDS011;70081;44.524;0.194;2023-05-16T02:04:51;4.03;;;2.90;;
76699;SDS011;70081;44.524;0.194;2023-05-16T02:10:23;5.60;;;3.70;;
76699;SDS011;70081;44.524;0.194;2023-05-16T02:15:57;6.20;;;3.43;;
76699;SDS011;70081;44.524;0.194;2023-05-16T02:21:28;5.70;;;3.80;;
76699;SDS011;70081;44.524;0.194;2023-05-16T02:27:02;5.23;;;3.77;;
76699;SDS011;70081;44.524;0.194;2023-05-16T02:32:34;5.67;;;3.23;;
76699;SDS011;70081;44.524;0.194;2023-05-16T02:38:06;5.20;;;3.53;;
76699;SDS011;70081;44.524;0.194;2023-05-16T02:43:41;5.53;;;3.33;;
76699;SDS011;70081;44.524;0.194;2023-05-16T02:49:13;4.13;;;3.40;;
76699;SDS011;70081;44.524;0.194;2023-05-16T02:54:46;4.70;;;3.10;;
76699;SDS011;70081;44.524;0.194;2023-05-16T03:00:19;6.50;;;3.53;;
76699;SDS011;70081;44.524;0.194;2023-05-16T03:05:51;4.40;;;3.43;;
76699;SDS011;70081;44.524;0.194;2023-05-16T03:11:26;6.47;;;4.17;;
76699;SDS011;70081;44.524;0.194;2023-05-16T03:16:58;5.87;;;3.20;;
76699;SDS011;70081;44.524;0.194;2023-05-16T03:22:31;4.80;;;3.20;;
76699;SDS011;70081;44.524;0.194;2023-05-16T03:28:04;3.50;;;2.50;;
76699;SDS011;70081;44.524;0.194;2023-05-16T03:33:36;2.93;;;2.40;;
76699;SDS011;70081;44.524;0.194;2023-05-16T03:39:09;3.77;;;2.90;;
76699;SDS011;70081;44.524;0.194;2023-05-16T03:44:42;2.80;;;2.47;;
76699;SDS011;70081;44.524;0.194;2023-05-16T03:50:15;5.57;;;2.77;;
76699;SDS011;70081;44.524;0.194;2023-05-16T03:55:47;2.30;;;2.10;;
76699;SDS011;70081;44.524;0.194;2023-05-16T04:01:18;3.30;;;2.70;;
76699;SDS011;70081;44.524;0.194;2023-05-16T04:06:50;4.20;;;2.67;;
76699;SDS011;70081;44.524;0.194;2023-05-16T04:12:23;4.43;;;2.90;;
76699;SDS011;70081;44.524;0.194;2023-05-16T04:17:54;3.77;;;2.80;;
76699;SDS011;70081;44.524;0.194;2023-05-16T04:23:28;3.70;;;3.00;;
76699;SDS011;70081;44.524;0.194;2023-05-16T04:29:00;4.23;;;2.80;;
76699;SDS011;70081;44.524;0.194;2023-05-16T04:34:33;3.77;;;3.03;;
76699;SDS011;70081;44.524;0.194;2023-05-16T04:40:07;5.80;;;2.93;;
76699;SDS011;70081;44.524;0.194;2023-05-16T04:45:38;5.20;;;3.30;;
76699;SDS011;70081;44.524;0.194;2023-05-16T04:51:09;4.20;;;2.90;;
76699;SDS011;70081;44.524;0.194;2023-05-16T04:56:42;4.97;;;2.90;;
76699;SDS011;70081;44.524;0.194;2023-05-16T05:02:15;5.13;;;3.03;;
76699;SDS011;70081;44.524;0.194;2023-05-16T05:07:47;3.67;;;2.93;;
76699;SDS011;70081;44.524;0.194;2023-05-16T05:13:21;4.47;;;3.30;;
76699;SDS011;70081;44.524;0.194;2023-05-16T05:18:53;5.13;;;3.40;;
76699;SDS011;70081;44.524;0.194;2023-05-16T05:24:25;9.27;;;5.40;;
76699;SDS011;70081;44.524;0.194;2023-05-16T05:29:57;6.33;;;4.53;;
76699;SDS011;70081;44.524;0.194;2023-05-16T05:35:31;6.53;;;4.90;;
76699;SDS011;70081;44.524;0.194;2023-05-16T05:41:03;8.23;;;6.30;;
76699;SDS011;70081;44.524;0.194;2023-05-16T05:46:36;7.50;;;5.40;;
76699;SDS011;70081;44.524;0.194;2023-05-16T05:52:09;10.07;;;6.97;;
76699;SDS011;70081;44.524;0.194;2023-05-16T05:57:41;7.17;;;6.20;;
76699;SDS011;70081;44.524;0.194;2023-05-16T06:03:14;8.60;;;6.20;;
76699;SDS011;70081;44.524;0.194;2023-05-16T06:08:47;10.83;;;5.53;;
76699;SDS011;70081;44.524;0.194;2023-05-16T06:14:21;8.60;;;5.87;;
76699;SDS011;70081;44.524;0.194;2023-05-16T06:19:53;8.87;;;6.17;;
76699;SDS011;70081;44.524;0.194;2023-05-16T06:25:25;10.87;;;6.30;;
76699;SDS011;70081;44.524;0.194;2023-05-16T06:30:57;9.07;;;5.83;;
76699;SDS011;70081;44.524;0.194;2023-05-16T06:36:31;8.70;;;5.43;;
76699;SDS011;70081;44.524;0.194;2023-05-16T06:42:03;12.20;;;5.20;;
76699;SDS011;70081;44.524;0.194;2023-05-16T06:47:35;10.50;;;5.60;;
76699;SDS011;70081;44.524;0.194;2023-05-16T06:53:08;10.00;;;5.87;;
76699;SDS011;70081;44.524;0.194;2023-05-16T06:58:41;9.37;;;4.97;;
76699;SDS011;70081;44.524;0.194;2023-05-16T07:04:15;6.37;;;4.80;;
76699;SDS011;70081;44.524;0.194;2023-05-16T07:09:47;7.20;;;4.57;;
76699;SDS011;70081;44.524;0.194;2023-05-16T07:15:20;8.97;;;5.17;;
76699;SDS011;70081;44.524;0.194;2023-05-16T07:20:53;11.10;;;4.53;;
76699;SDS011;70081;44.524;0.194;2023-05-16T07:26:26;8.23;;;4.20;;
76699;SDS011;70081;44.524;0.194;2023-05-16T07:31:59;6.77;;;3.80;;
76699;SDS011;70081;44.524;0.194;2023-05-16T07:37:32;7.60;;;4.47;;
76699;SDS011;70081;44.524;0.194;2023-05-16T07:43:05;6.93;;;4.47;;
76699;SDS011;70081;44.524;0.194;2023-05-16T07:48:37;7.47;;;4.20;;
76699;SDS011;70081;44.524;0.194;2023-05-16T07:54:10;6.87;;;4.10;;
76699;SDS011;70081;44.524;0.194;2023-05-16T07:59:44;6.30;;;3.40;;
76699;SDS011;70081;44.524;0.194;2023-05-16T08:05:16;4.77;;;3.50;;
76699;SDS011;70081;44.524;0.194;2023-05-16T08:10:49;7.07;;;3.70;;
76699;SDS011;70081;44.524;0.194;2023-05-16T08:16:22;6.80;;;3.10;;
76699;SDS011;70081;44.524;0.194;2023-05-16T08:21:56;6.37;;;3.50;;
76699;SDS011;70081;44.524;0.194;2023-05-16T08:27:28;10.50;;;3.30;;
76699;SDS011;70081;44.524;0.194;2023-05-16T08:33:04;4.70;;;3.10;;
76699;SDS011;70081;44.524;0.194;2023-05-16T08:38:34;5.13;;;2.77;;
76699;SDS011;70081;44.524;0.194;2023-05-16T08:44:07;6.37;;;3.30;;
76699;SDS011;70081;44.524;0.194;2023-05-16T08:49:40;7.40;;;2.97;;
76699;SDS011;70081;44.524;0.194;2023-05-16T08:55:13;3.47;;;2.50;;
76699;SDS011;70081;44.524;0.194;2023-05-16T09:00:45;5.93;;;3.03;;
76699;SDS011;70081;44.524;0.194;2023-05-16T09:06:18;4.07;;;2.47;;
76699;SDS011;70081;44.524;0.194;2023-05-16T09:11:52;4.70;;;2.03;;
76699;SDS011;70081;44.524;0.194;2023-05-16T09:17:25;9.63;;;2.57;;
76699;SDS011;70081;44.524;0.194;2023-05-16T09:22:57;2.70;;;1.93;;
76699;SDS011;70081;44.524;0.194;2023-05-16T09:28:29;6.90;;;2.40;;
76699;SDS011;70081;44.524;0.194;2023-05-16T09:34:02;6.00;;;1.83;;
76699;SDS011;70081;44.524;0.194;2023-05-16T09:39:34;5.43;;;2.03;;
76699;SDS011;70081;44.524;0.194;2023-05-16T09:45:07;5.33;;;1.97;;
76699;SDS011;70081;44.524;0.194;2023-05-16T09:50:46;3.10;;;1.90;;
76699;SDS011;70081;44.524;0.194;2023-05-16T09:56:13;3.87;;;1.50;;
76699;SDS011;70081;44.524;0.194;2023-05-16T10:01:44;6.03;;;1.93;;
76699;SDS011;70081;44.524;0.194;2023-05-16T10:07:16;4.30;;;1.77;;
76699;SDS011;70081;44.524;0.194;2023-05-16T10:12:49;3.87;;;1.80;;
76699;SDS011;70081;44.524;0.194;2023-05-16T10:18:25;2.97;;;1.50;;
76699;SDS011;70081;44.524;0.194;2023-05-16T10:23:56;4.63;;;1.67;;
76699;SDS011;70081;44.524;0.194;2023-05-16T10:29:28;3.93;;;1.30;;
76699;SDS011;70081;44.524;0.194;2023-05-16T10:35:02;7.20;;;1.63;;
76699;SDS011;70081;44.524;0.194;2023-05-16T10:40:32;4.83;;;1.97;;
76699;SDS011;70081;44.524;0.194;2023-05-16T10:46:05;7.47;;;1.93;;
76699;SDS011;70081;44.524;0.194;2023-05-16T10:51:38;6.17;;;1.77;;
76699;SDS011;70081;44.524;0.194;2023-05-16T10:57:16;5.07;;;1.60;;
76699;SDS011;70081;44.524;0.194;2023-05-16T11:02:44;4.60;;;1.70;;
76699;SDS011;70081;44.524;0.194;2023-05-16T11:08:16;5.30;;;2.07;;
76699;SDS011;70081;44.524;0.194;2023-05-16T11:13:53;3.43;;;1.53;;
76699;SDS011;70081;44.524;0.194;2023-05-16T11:19:29;1.87;;;1.23;;
76699;SDS011;70081;44.524;0.194;2023-05-16T11:24:57;2.97;;;1.30;;
76699;SDS011;70081;44.524;0.194;2023-05-16T11:30:27;3.57;;;1.50;;
76699;SDS011;70081;44.524;0.194;2023-05-16T11:36:01;3.23;;;1.50;;
76699;SDS011;70081;44.524;0.194;2023-05-16T11:41:32;3.73;;;1.60;;
76699;SDS011;70081;44.524;0.194;2023-05-16T11:47:04;7.00;;;1.60;;
76699;SDS011;70081;44.524;0.194;2023-05-16T11:52:37;6.20;;;2.00;;
76699;SDS011;70081;44.524;0.194;2023-05-16T11:58:08;5.43;;;1.60;;
76699;SDS011;70081;44.524;0.194;2023-05-16T12:03:41;2.03;;;1.20;;
76699;SDS011;70081;44.524;0.194;2023-05-16T12:09:15;5.90;;;1.50;;
76699;SDS011;70081;44.524;0.194;2023-05-16T12:14:48;4.40;;;1.70;;
76699;SDS011;70081;44.524;0.194;2023-05-16T12:20:20;1.80;;;1.20;;
76699;SDS011;70081;44.524;0.194;2023-05-16T12:25:55;3.37;;;1.60;;
76699;SDS011;70081;44.524;0.194;2023-05-16T12:31:25;7.67;;;1.50;;
76699;SDS011;70081;44.524;0.194;2023-05-16T12:36:58;3.17;;;0.93;;
76699;SDS011;70081;44.524;0.194;2023-05-16T12:42:31;4.63;;;1.70;;
76699;SDS011;70081;44.524;0.194;2023-05-16T12:48:03;3.53;;;1.30;;
76699;SDS011;70081;44.524;0.194;2023-05-16T12:53:40;2.93;;;1.30;;
76699;SDS011;70081;44.524;0.194;2023-05-16T12:59:11;5.53;;;1.60;;
76699;SDS011;70081;44.524;0.194;2023-05-16T13:04:43;4.27;;;1.50;;
76699;SDS011;70081;44.524;0.194;2023-05-16T13:10:16;3.33;;;1.40;;
76699;SDS011;70081;44.524;0.194;2023-05-16T13:15:50;3.23;;;1.93;;
76699;SDS011;70081;44.524;0.194;2023-05-16T13:21:22;3.20;;;1.40;;
76699;SDS011;70081;44.524;0.194;2023-05-16T13:26:55;4.57;;;1.40;;
76699;SDS011;70081;44.524;0.194;2023-05-16T13:32:28;5.53;;;1.20;;
76699;SDS011;70081;44.524;0.194;2023-05-16T13:38:01;3.93;;;1.30;;
76699;SDS011;70081;44.524;0.194;2023-05-16T13:43:35;5.70;;;1.40;;
76699;SDS011;70081;44.524;0.194;2023-05-16T13:49:08;3.23;;;1.20;;
76699;SDS011;70081;44.524;0.194;2023-05-16T13:54:41;1.80;;;1.33;;
76699;SDS011;70081;44.524;0.194;2023-05-16T14:00:13;3.77;;;1.67;;
76699;SDS011;70081;44.524;0.194;2023-05-16T14:05:46;3.10;;;1.20;;
76699;SDS011;70081;44.524;0.194;2023-05-16T14:11:22;2.17;;;1.30;;
76699;SDS011;70081;44.524;0.194;2023-05-16T14:16:52;5.03;;;2.57;;
76699;SDS011;70081;44.524;0.194;2023-05-16T14:22:23;3.90;;;1.33;;
76699;SDS011;70081;44.524;0.194;2023-05-16T14:27:56;3.97;;;1.57;;
76699;SDS011;70081;44.524;0.194;2023-05-16T14:33:30;4.60;;;1.50;;
76699;SDS011;70081;44.524;0.194;2023-05-16T14:39:33;3.40;;;1.40;;
76699;SDS011;70081;44.524;0.194;2023-05-16T14:44:36;4.77;;;1.73;;
76699;SDS011;70081;44.524;0.194;2023-05-16T14:50:07;2.50;;;1.43;;
76699;SDS011;70081;44.524;0.194;2023-05-16T14:55:40;3.13;;;1.50;;
76699;SDS011;70081;44.524;0.194;2023-05-16T15:01:12;2.53;;;1.30;;
76699;SDS011;70081;44.524;0.194;2023-05-16T15:06:46;2.37;;;1.63;;
76699;SDS011;70081;44.524;0.194;2023-05-16T15:12:18;3.50;;;1.50;;
76699;SDS011;70081;44.524;0.194;2023-05-16T15:17:51;3.57;;;1.10;;
76699;SDS011;70081;44.524;0.194;2023-05-16T15:23:24;3.97;;;1.53;;
76699;SDS011;70081;44.524;0.194;2023-05-16T15:28:56;3.33;;;1.50;;
76699;SDS011;70081;44.524;0.194;2023-05-16T15:34:29;6.40;;;1.43;;
76699;SDS011;70081;44.524;0.194;2023-05-16T15:40:05;4.57;;;1.20;;
76699;SDS011;70081;44.524;0.194;2023-05-16T15:45:36;3.73;;;1.40;;
76699;SDS011;70081;44.524;0.194;2023-05-16T15:51:07;2.77;;;1.43;;
76699;SDS011;70081;44.524;0.194;2023-05-16T15:56:40;3.67;;;1.30;;
76699;SDS011;70081;44.524;0.194;2023-05-16T16:02:14;5.53;;;1.43;;
76699;SDS011;70081;44.524;0.194;2023-05-16T16:07:47;2.87;;;1.20;;
76699;SDS011;70081;44.524;0.194;2023-05-16T16:13:20;3.83;;;1.30;;
76699;SDS011;70081;44.524;0.194;2023-05-16T16:18:52;2.83;;;1.33;;
76699;SDS011;70081;44.524;0.194;2023-05-16T16:24:25;2.67;;;0.90;;
76699;SDS011;70081;44.524;0.194;2023-05-16T16:29:58;7.27;;;2.60;;
76699;SDS011;70081;44.524;0.194;2023-05-16T16:35:30;1.37;;;1.20;;
76699;SDS011;70081;44.524;0.194;2023-05-16T16:41:03;4.90;;;1.33;;
76699;SDS011;70081;44.524;0.194;2023-05-16T16:46:35;3.23;;;1.20;;
76699;SDS011;70081;44.524;0.194;2023-05-16T16:52:08;2.13;;;0.80;;
76699;SDS011;70081;44.524;0.194;2023-05-16T16:57:42;5.57;;;1.30;;
76699;SDS011;70081;44.524;0.194;2023-05-16T17:03:15;3.47;;;1.40;;
76699;SDS011;70081;44.524;0.194;2023-05-16T17:08:49;3.47;;;1.50;;
76699;SDS011;70081;44.524;0.194;2023-05-16T17:14:21;4.07;;;1.10;;
76699;SDS011;70081;44.524;0.194;2023-05-16T17:19:53;2.70;;;1.23;;
76699;SDS011;70081;44.524;0.194;2023-05-16T17:25:25;2.37;;;1.13;;
76699;SDS011;70081;44.524;0.194;2023-05-16T17:30:57;2.17;;;1.47;;
76699;SDS011;70081;44.524;0.194;2023-05-16T17:36:29;5.17;;;1.17;;
76699;SDS011;70081;44.524;0.194;2023-05-16T17:42:01;5.77;;;1.00;;
76699;SDS011;70081;44.524;0.194;2023-05-16T17:47:32;5.37;;;1.47;;
76699;SDS011;70081;44.524;0.194;2023-05-16T17:53:04;3.57;;;1.83;;
76699;SDS011;70081;44.524;0.194;2023-05-16T17:58:37;3.17;;;1.43;;
76699;SDS011;70081;44.524;0.194;2023-05-16T18:04:10;3.20;;;1.30;;
76699;SDS011;70081;44.524;0.194;2023-05-16T18:09:42;7.03;;;1.43;;
76699;SDS011;70081;44.524;0.194;2023-05-16T18:15:14;4.17;;;1.23;;
76699;SDS011;70081;44.524;0.194;2023-05-16T18:20:47;3.20;;;0.93;;
76699;SDS011;70081;44.524;0.194;2023-05-16T18:26:21;5.40;;;1.47;;
76699;SDS011;70081;44.524;0.194;2023-05-16T18:31:53;5.27;;;1.13;;
76699;SDS011;70081;44.524;0.194;2023-05-16T18:37:26;4.77;;;1.10;;
76699;SDS011;70081;44.524;0.194;2023-05-16T18:42:58;2.47;;;1.20;;
76699;SDS011;70081;44.524;0.194;2023-05-16T18:48:31;2.47;;;0.90;;
76699;SDS011;70081;44.524;0.194;2023-05-16T18:54:03;5.70;;;1.13;;
76699;SDS011;70081;44.524;0.194;2023-05-16T18:59:36;4.03;;;1.20;;
76699;SDS011;70081;44.524;0.194;2023-05-16T19:05:09;4.77;;;1.10;;
76699;SDS011;70081;44.524;0.194;2023-05-16T19:10:41;2.53;;;0.77;;
76699;SDS011;70081;44.524;0.194;2023-05-16T19:16:14;4.33;;;1.03;;
76699;SDS011;70081;44.524;0.194;2023-05-16T19:21:46;1.90;;;0.60;;
76699;SDS011;70081;44.524;0.194;2023-05-16T19:27:18;3.77;;;0.80;;
76699;SDS011;70081;44.524;0.194;2023-05-16T19:32:51;3.20;;;0.83;;
76699;SDS011;70081;44.524;0.194;2023-05-16T19:38:24;1.63;;;1.00;;
76699;SDS011;70081;44.524;0.194;2023-05-16T19:43:56;2.27;;;0.93;;
76699;SDS011;70081;44.524;0.194;2023-05-16T19:49:29;5.07;;;1.30;;
76699;SDS011;70081;44.524;0.194;2023-05-16T19:55:00;3.33;;;1.03;;
76699;SDS011;70081;44.524;0.194;2023-05-16T20:00:33;3.30;;;0.87;;
76699;SDS011;70081;44.524;0.194;2023-05-16T20:06:06;2.07;;;0.70;;
76699;SDS011;70081;44.524;0.194;2023-05-16T20:11:38;5.27;;;1.43;;
76699;SDS011;70081;44.524;0.194;2023-05-16T20:17:10;2.80;;;1.03;;
76699;SDS011;70081;44.524;0.194;2023-05-16T20:22:42;2.20;;;0.87;;
76699;SDS011;70081;44.524;0.194;2023-05-16T20:28:15;3.77;;;0.90;;
76699;SDS011;70081;44.524;0.194;2023-05-16T20:33:49;3.03;;;0.90;;
76699;SDS011;70081;44.524;0.194;2023-05-16T20:39:21;2.23;;;0.80;;
76699;SDS011;70081;44.524;0.194;2023-05-16T20:44:52;4.43;;;0.80;;
76699;SDS011;70081;44.524;0.194;2023-05-16T20:50:25;2.67;;;0.87;;
76699;SDS011;70081;44.524;0.194;2023-05-16T20:55:58;2.20;;;0.90;;
76699;SDS011;70081;44.524;0.194;2023-05-16T21:01:36;2.70;;;1.00;;
76699;SDS011;70081;44.524;0.194;2023-05-16T21:07:05;2.23;;;0.90;;
76699;SDS011;70081;44.524;0.194;2023-05-16T21:12:38;2.80;;;0.77;;
76699;SDS011;70081;44.524;0.194;2023-05-16T21:18:10;2.43;;;0.90;;
76699;SDS011;70081;44.524;0.194;2023-05-16T21:23:42;2.63;;;0.70;;
76699;SDS011;70081;44.524;0.194;2023-05-16T21:29:15;3.97;;;0.90;;
76699;SDS011;70081;44.524;0.194;2023-05-16T21:34:48;2.63;;;0.90;;
76699;SDS011;70081;44.524;0.194;2023-05-16T21:40:24;1.67;;;1.20;;
76699;SDS011;70081;44.524;0.194;2023-05-16T21:45:51;2.37;;;1.13;;
76699;SDS011;70081;44.524;0.194;2023-05-16T21:51:25;1.67;;;0.83;;
76699;SDS011;70081;44.524;0.194;2023-05-16T21:56:57;1.37;;;0.80;;
76699;SDS011;70081;44.524;0.194;2023-05-16T22:02:29;2.03;;;1.00;;
76699;SDS011;70081;44.524;0.194;2023-05-16T22:08:02;3.70;;;0.90;;
76699;SDS011;70081;44.524;0.194;2023-05-16T22:13:36;2.10;;;1.17;;
76699;SDS011;70081;44.524;0.194;2023-05-16T22:19:08;2.70;;;0.80;;
76699;SDS011;70081;44.524;0.194;2023-05-16T22:24:39;3.67;;;1.40;;
76699;SDS011;70081;44.524;0.194;2023-05-16T22:30:12;2.23;;;0.80;;
76699;SDS011;70081;44.524;0.194;2023-05-16T22:35:44;3.77;;;1.27;;
76699;SDS011;70081;44.524;0.194;2023-05-16T22:41:15;3.57;;;1.17;;
76699;SDS011;70081;44.524;0.194;2023-05-16T22:46:48;2.47;;;0.90;;
76699;SDS011;70081;44.524;0.194;2023-05-16T22:52:21;2.57;;;0.80;;
76699;SDS011;70081;44.524;0.194;2023-05-16T22:57:57;3.87;;;1.07;;
76699;SDS011;70081;44.524;0.194;2023-05-16T23:03:28;4.33;;;1.13;;
76699;SDS011;70081;44.524;0.194;2023-05-16T23:09:01;5.27;;;1.20;;
76699;SDS011;70081;44.524;0.194;2023-05-16T23:14:33;1.67;;;0.80;;
76699;SDS011;70081;44.524;0.194;2023-05-16T23:20:07;4.47;;;1.07;;
76699;SDS011;70081;44.524;0.194;2023-05-16T23:25:39;4.83;;;1.20;;
76699;SDS011;70081;44.524;0.194;2023-05-16T23:31:12;2.77;;;0.97;;
76699;SDS011;70081;44.524;0.194;2023-05-16T23:36:45;2.17;;;1.10;;
76699;SDS011;70081;44.524;0.194;2023-05-16T23:42:18;4.87;;;1.53;;
76699;SDS011;70081;44.524;0.194;2023-05-16T23:47:51;2.03;;;1.00;;
76699;SDS011;70081;44.524;0.194;2023-05-16T23:53:28;2.13;;;0.90;;
76699;SDS011;70081;44.524;0.194;2023-05-16T23:58:58;1.97;;;0.77;;
